Ana Sayfa
METAR-TAF:

METAR-TAF

Havaalanları :

Yap, Mikronezya

Enlem: 09-29N, Boylam: 138-05E, yükseklik: 28 m

Güncel hava durumu gözlemi

Rapor saat 04:50 UTC de 41 dakika önce yapıldı.
Rüzgar kuzeydoğudan 10 kt
Sıcaklık 29°C
Nem 84%
Basınç 1007 hPa
Görüş mesafesi: 19.3 km
1600 ft yükseklikte az bulutlu
13000 ft yükseklikte parçalı çok bulutlu
30000 ft yükseklikte çok bulutlu

METAR: PTYA 200450Z 05010KT 12SM FEW016 BKN130 OVC300 29/26 A2973 RMK SLP068 T02890257

Saat: 15:31 (05:31 UTC)

Tahmin

Rapor saat 23:28 UTC de 6 saat ve 3 dakika önce yapıldı.
Ayın 20'si saat 00 UTC'den ayın 20'si saat 24 UTC'ye kadar geçerli Tahmin
Rüzgar doğu/kuzeydoğudan 7 kt
Görüş mesafesi: 10 km
1600 ft yükseklikte parçalı bulutlu
5000 ft yükseklikte parçalı bulutlu
Civarda sağanaklar

TAF: PTYA 192328Z 2000/2024 07007KT P6SM VCSH SCT016 SCT050

4.000'den fazla havaalanı için hava durumu gözlemleri ve tahminleri (METAR ve TAF raporları).

Kullanılabilir istasyonlar harita üzerinde sarı ve kırmızı noktalarla gösterilir.

İstasyonun adını görmek için fareyi noktanın üzerinde gezdirin.

Sonrasında hava gözlem ve tahminlerini görmek için tıklayın.

Haritayı değiştirmek için: yaklaştırmak için siyah artı işaretli yeşil düğmeye ve uzaklaştırmak için de eksi işaretli düğmeye hızla tıklayın; bitişik haritalar için yeşil okları kullanın.


METAR-TAF: